Terminal Aerodrome Forecast
Issued by NWS Bismarck, ND

Home | Current Version | Previous Version | Graphics & Text | Print | Product List | Glossary On
Versions: 1 2 3 4 5 6 7 8 9 10 11 12 13 14
000
FTUS43 KBIS 251613 AAB
TAFBIS
TAF AMD
KBIS 251613Z 2516/2612 31025G38KT P6SM SCT035
     FM251900 31022G31KT P6SM FEW200
     FM260200 30010KT P6SM SKC=

USA.gov is the U.S. government's official web portal to all federal, state and local government web resources and services.